sensor_id;sensor_type;location;lat;lon;timestamp;temperature;humidity
4755;DHT22;2391;47.212;7.542;2022-12-29T00:02:12;6.50;99.60
4755;DHT22;2391;47.212;7.542;2022-12-29T00:04:38;6.40;99.80
4755;DHT22;2391;47.212;7.542;2022-12-29T00:07:05;6.30;99.90
4755;DHT22;2391;47.212;7.542;2022-12-29T00:09:31;6.20;99.90
4755;DHT22;2391;47.212;7.542;2022-12-29T00:11:58;6.20;99.90
4755;DHT22;2391;47.212;7.542;2022-12-29T00:14:25;6.20;99.90
4755;DHT22;2391;47.212;7.542;2022-12-29T00:17:09;6.30;99.90
4755;DHT22;2391;47.212;7.542;2022-12-29T00:19:35;6.40;99.90
4755;DHT22;2391;47.212;7.542;2022-12-29T00:22:20;6.50;99.90
4755;DHT22;2391;47.212;7.542;2022-12-29T00:25:05;6.50;99.90
4755;DHT22;2391;47.212;7.542;2022-12-29T00:27:50;6.50;99.90
4755;DHT22;2391;47.212;7.542;2022-12-29T00:30:35;6.50;99.90
4755;DHT22;2391;47.212;7.542;2022-12-29T00:33:22;6.40;99.90
4755;DHT22;2391;47.212;7.542;2022-12-29T00:36:15;6.30;99.90
4755;DHT22;2391;47.212;7.542;2022-12-29T00:38:43;6.20;99.90
4755;DHT22;2391;47.212;7.542;2022-12-29T00:41:28;6.10;99.90
4755;DHT22;2391;47.212;7.542;2022-12-29T00:44:13;6.10;99.90
4755;DHT22;2391;47.212;7.542;2022-12-29T00:46:41;6.10;99.90
4755;DHT22;2391;47.212;7.542;2022-12-29T00:49:09;6.10;99.90
4755;DHT22;2391;47.212;7.542;2022-12-29T00:51:55;6.10;99.90
4755;DHT22;2391;47.212;7.542;2022-12-29T00:54:21;6.10;99.90
4755;DHT22;2391;47.212;7.542;2022-12-29T00:56:49;6.10;99.90
4755;DHT22;2391;47.212;7.542;2022-12-29T00:59:15;6.20;99.90
4755;DHT22;2391;47.212;7.542;2022-12-29T01:01:41;6.20;99.90
4755;DHT22;2391;47.212;7.542;2022-12-29T01:04:07;6.30;99.90
4755;DHT22;2391;47.212;7.542;2022-12-29T01:06:35;6.40;99.90
4755;DHT22;2391;47.212;7.542;2022-12-29T01:09:02;6.60;99.90
4755;DHT22;2391;47.212;7.542;2022-12-29T01:11:47;6.70;99.90
4755;DHT22;2391;47.212;7.542;2022-12-29T01:14:13;6.80;99.90
4755;DHT22;2391;47.212;7.542;2022-12-29T01:16:39;6.90;99.90
4755;DHT22;2391;47.212;7.542;2022-12-29T01:19:05;6.90;99.90
4755;DHT22;2391;47.212;7.542;2022-12-29T01:21:32;6.90;99.90
4755;DHT22;2391;47.212;7.542;2022-12-29T01:23:58;6.90;99.90
4755;DHT22;2391;47.212;7.542;2022-12-29T01:26:24;7.00;99.90
4755;DHT22;2391;47.212;7.542;2022-12-29T01:28:50;7.00;99.90
4755;DHT22;2391;47.212;7.542;2022-12-29T01:31:16;6.90;99.90
4755;DHT22;2391;47.212;7.542;2022-12-29T01:33:42;6.90;99.90
4755;DHT22;2391;47.212;7.542;2022-12-29T01:36:11;6.80;99.90
4755;DHT22;2391;47.212;7.542;2022-12-29T01:38:38;6.80;99.90
4755;DHT22;2391;47.212;7.542;2022-12-29T01:41:05;6.80;99.90
4755;DHT22;2391;47.212;7.542;2022-12-29T01:43:55;6.80;99.90
4755;DHT22;2391;47.212;7.542;2022-12-29T01:49:09;6.80;99.90
4755;DHT22;2391;47.212;7.542;2022-12-29T01:51:53;6.90;99.90
4755;DHT22;2391;47.212;7.542;2022-12-29T01:54:26;6.90;99.90
4755;DHT22;2391;47.212;7.542;2022-12-29T01:56:53;6.90;99.90
4755;DHT22;2391;47.212;7.542;2022-12-29T01:59:22;6.80;99.90
4755;DHT22;2391;47.212;7.542;2022-12-29T02:01:50;6.80;99.90
4755;DHT22;2391;47.212;7.542;2022-12-29T02:04:16;6.70;99.90
4755;DHT22;2391;47.212;7.542;2022-12-29T02:06:54;6.70;99.90
4755;DHT22;2391;47.212;7.542;2022-12-29T02:09:21;6.70;99.90
4755;DHT22;2391;47.212;7.542;2022-12-29T02:11:47;6.70;99.90
4755;DHT22;2391;47.212;7.542;2022-12-29T02:14:13;6.70;99.90
4755;DHT22;2391;47.212;7.542;2022-12-29T02:22:23;6.70;99.90
4755;DHT22;2391;47.212;7.542;2022-12-29T02:41:30;6.80;99.90
4755;DHT22;2391;47.212;7.542;2022-12-29T02:43:57;6.80;99.90
4755;DHT22;2391;47.212;7.542;2022-12-29T02:49:15;6.90;99.90
4755;DHT22;2391;47.212;7.542;2022-12-29T02:52:01;7.00;99.90
4755;DHT22;2391;47.212;7.542;2022-12-29T02:54:27;7.00;99.90
4755;DHT22;2391;47.212;7.542;2022-12-29T02:57:27;7.00;99.90
4755;DHT22;2391;47.212;7.542;2022-12-29T02:59:43;7.10;99.90
4755;DHT22;2391;47.212;7.542;2022-12-29T03:05:17;7.30;99.90
4755;DHT22;2391;47.212;7.542;2022-12-29T03:16:45;7.40;99.90
4755;DHT22;2391;47.212;7.542;2022-12-29T03:19:36;7.50;99.90
4755;DHT22;2391;47.212;7.542;2022-12-29T03:22:08;7.50;99.90
4755;DHT22;2391;47.212;7.542;2022-12-29T03:25:03;7.60;99.90
4755;DHT22;2391;47.212;7.542;2022-12-29T03:27:44;7.70;99.90
4755;DHT22;2391;47.212;7.542;2022-12-29T03:30:11;7.70;99.90
4755;DHT22;2391;47.212;7.542;2022-12-29T03:32:43;7.70;99.90
4755;DHT22;2391;47.212;7.542;2022-12-29T03:35:13;7.80;99.90
4755;DHT22;2391;47.212;7.542;2022-12-29T03:37:43;7.80;99.90
4755;DHT22;2391;47.212;7.542;2022-12-29T03:40:09;7.90;99.90
4755;DHT22;2391;47.212;7.542;2022-12-29T03:42:37;7.90;99.90
4755;DHT22;2391;47.212;7.542;2022-12-29T03:45:04;7.90;99.90
4755;DHT22;2391;47.212;7.542;2022-12-29T03:47:32;7.90;99.90
4755;DHT22;2391;47.212;7.542;2022-12-29T03:49:58;7.90;99.90
4755;DHT22;2391;47.212;7.542;2022-12-29T03:52:24;8.00;99.90
4755;DHT22;2391;47.212;7.542;2022-12-29T03:54:50;8.00;99.90
4755;DHT22;2391;47.212;7.542;2022-12-29T03:57:16;8.00;99.90
4755;DHT22;2391;47.212;7.542;2022-12-29T03:59:42;8.10;99.90
4755;DHT22;2391;47.212;7.542;2022-12-29T04:02:08;8.10;99.90
4755;DHT22;2391;47.212;7.542;2022-12-29T04:04:34;8.20;99.90
4755;DHT22;2391;47.212;7.542;2022-12-29T04:07:00;8.20;99.90
4755;DHT22;2391;47.212;7.542;2022-12-29T04:09:26;8.20;99.90
4755;DHT22;2391;47.212;7.542;2022-12-29T04:11:52;8.20;99.90
4755;DHT22;2391;47.212;7.542;2022-12-29T04:14:18;8.20;99.90
4755;DHT22;2391;47.212;7.542;2022-12-29T04:16:46;8.30;99.90
4755;DHT22;2391;47.212;7.542;2022-12-29T04:19:12;8.30;99.90
4755;DHT22;2391;47.212;7.542;2022-12-29T04:21:38;8.40;99.90
4755;DHT22;2391;47.212;7.542;2022-12-29T04:24:05;8.40;99.90
4755;DHT22;2391;47.212;7.542;2022-12-29T04:26:34;8.40;99.90
4755;DHT22;2391;47.212;7.542;2022-12-29T04:29:00;8.40;99.90
4755;DHT22;2391;47.212;7.542;2022-12-29T04:31:26;8.40;99.90
4755;DHT22;2391;47.212;7.542;2022-12-29T04:33:51;8.40;99.90
4755;DHT22;2391;47.212;7.542;2022-12-29T04:36:18;8.40;99.90
4755;DHT22;2391;47.212;7.542;2022-12-29T04:38:44;8.50;99.90
4755;DHT22;2391;47.212;7.542;2022-12-29T04:41:10;8.60;99.90
4755;DHT22;2391;47.212;7.542;2022-12-29T04:43:36;8.60;99.90
4755;DHT22;2391;47.212;7.542;2022-12-29T04:46:02;8.60;99.90
4755;DHT22;2391;47.212;7.542;2022-12-29T04:48:27;8.60;99.90
4755;DHT22;2391;47.212;7.542;2022-12-29T04:50:53;8.70;99.90
4755;DHT22;2391;47.212;7.542;2022-12-29T04:53:19;8.70;99.90
4755;DHT22;2391;47.212;7.542;2022-12-29T04:55:50;8.80;99.90
4755;DHT22;2391;47.212;7.542;2022-12-29T04:58:18;8.80;99.90
4755;DHT22;2391;47.212;7.542;2022-12-29T05:00:44;8.80;99.90
4755;DHT22;2391;47.212;7.542;2022-12-29T05:03:10;8.80;99.90
4755;DHT22;2391;47.212;7.542;2022-12-29T05:05:36;8.80;99.90
4755;DHT22;2391;47.212;7.542;2022-12-29T05:08:03;8.80;99.90
4755;DHT22;2391;47.212;7.542;2022-12-29T05:10:29;8.90;99.90
4755;DHT22;2391;47.212;7.542;2022-12-29T05:12:55;8.90;99.90
4755;DHT22;2391;47.212;7.542;2022-12-29T05:15:21;8.90;99.90
4755;DHT22;2391;47.212;7.542;2022-12-29T05:17:47;8.90;99.90
4755;DHT22;2391;47.212;7.542;2022-12-29T05:20:13;8.90;99.90
4755;DHT22;2391;47.212;7.542;2022-12-29T05:22:39;9.00;99.90
4755;DHT22;2391;47.212;7.542;2022-12-29T05:25:05;9.00;99.90
4755;DHT22;2391;47.212;7.542;2022-12-29T05:27:31;9.10;99.90
4755;DHT22;2391;47.212;7.542;2022-12-29T05:29:57;9.20;99.90
4755;DHT22;2391;47.212;7.542;2022-12-29T05:32:23;9.20;99.90
4755;DHT22;2391;47.212;7.542;2022-12-29T05:34:49;9.30;99.90
4755;DHT22;2391;47.212;7.542;2022-12-29T05:37:15;9.40;99.90
4755;DHT22;2391;47.212;7.542;2022-12-29T05:39:42;9.40;99.90
4755;DHT22;2391;47.212;7.542;2022-12-29T05:42:08;9.50;99.90
4755;DHT22;2391;47.212;7.542;2022-12-29T05:44:34;9.50;99.90
4755;DHT22;2391;47.212;7.542;2022-12-29T05:47:00;9.50;99.90
4755;DHT22;2391;47.212;7.542;2022-12-29T05:49:26;9.50;99.90
4755;DHT22;2391;47.212;7.542;2022-12-29T05:51:51;9.40;99.90
4755;DHT22;2391;47.212;7.542;2022-12-29T05:54:17;9.50;99.90
4755;DHT22;2391;47.212;7.542;2022-12-29T05:56:43;9.50;99.90
4755;DHT22;2391;47.212;7.542;2022-12-29T05:59:08;9.50;99.90
4755;DHT22;2391;47.212;7.542;2022-12-29T06:01:34;9.60;99.90
4755;DHT22;2391;47.212;7.542;2022-12-29T06:04:00;9.60;99.90
4755;DHT22;2391;47.212;7.542;2022-12-29T06:06:26;9.60;99.90
4755;DHT22;2391;47.212;7.542;2022-12-29T06:08:52;9.60;99.90
4755;DHT22;2391;47.212;7.542;2022-12-29T06:11:18;9.60;99.90
4755;DHT22;2391;47.212;7.542;2022-12-29T06:13:44;9.60;99.90
4755;DHT22;2391;47.212;7.542;2022-12-29T06:16:10;9.70;99.90
4755;DHT22;2391;47.212;7.542;2022-12-29T06:18:36;9.70;99.90
4755;DHT22;2391;47.212;7.542;2022-12-29T06:21:03;9.70;99.90
4755;DHT22;2391;47.212;7.542;2022-12-29T06:23:29;9.70;99.90
4755;DHT22;2391;47.212;7.542;2022-12-29T06:25:56;9.70;99.90
4755;DHT22;2391;47.212;7.542;2022-12-29T06:28:23;9.70;99.90
4755;DHT22;2391;47.212;7.542;2022-12-29T06:30:49;9.70;99.90
4755;DHT22;2391;47.212;7.542;2022-12-29T06:33:15;9.70;99.90
4755;DHT22;2391;47.212;7.542;2022-12-29T06:35:42;9.70;99.90
4755;DHT22;2391;47.212;7.542;2022-12-29T06:38:09;9.70;99.90
4755;DHT22;2391;47.212;7.542;2022-12-29T06:40:35;9.70;99.90
4755;DHT22;2391;47.212;7.542;2022-12-29T06:43:01;9.70;99.90
4755;DHT22;2391;47.212;7.542;2022-12-29T06:45:27;9.70;99.90
4755;DHT22;2391;47.212;7.542;2022-12-29T06:47:53;9.80;99.90
4755;DHT22;2391;47.212;7.542;2022-12-29T06:50:19;9.80;99.90
4755;DHT22;2391;47.212;7.542;2022-12-29T06:52:45;9.90;99.90
4755;DHT22;2391;47.212;7.542;2022-12-29T06:55:11;9.90;99.90
4755;DHT22;2391;47.212;7.542;2022-12-29T06:57:37;9.90;99.90
4755;DHT22;2391;47.212;7.542;2022-12-29T07:00:04;9.90;99.90
4755;DHT22;2391;47.212;7.542;2022-12-29T07:02:30;9.90;99.90
4755;DHT22;2391;47.212;7.542;2022-12-29T07:04:56;10.00;99.90
4755;DHT22;2391;47.212;7.542;2022-12-29T07:07:22;10.00;99.90
4755;DHT22;2391;47.212;7.542;2022-12-29T07:09:48;10.00;99.90
4755;DHT22;2391;47.212;7.542;2022-12-29T07:12:14;10.00;99.90
4755;DHT22;2391;47.212;7.542;2022-12-29T07:14:40;10.00;99.90
4755;DHT22;2391;47.212;7.542;2022-12-29T07:17:06;10.00;99.90
4755;DHT22;2391;47.212;7.542;2022-12-29T07:19:33;10.00;99.90
4755;DHT22;2391;47.212;7.542;2022-12-29T07:21:59;10.10;99.90
4755;DHT22;2391;47.212;7.542;2022-12-29T07:24:25;10.10;99.90
4755;DHT22;2391;47.212;7.542;2022-12-29T07:26:52;10.00;99.90
4755;DHT22;2391;47.212;7.542;2022-12-29T07:29:18;10.00;99.90
4755;DHT22;2391;47.212;7.542;2022-12-29T07:31:44;10.00;99.90
4755;DHT22;2391;47.212;7.542;2022-12-29T07:34:11;10.10;99.90
4755;DHT22;2391;47.212;7.542;2022-12-29T07:36:37;10.00;99.90
4755;DHT22;2391;47.212;7.542;2022-12-29T07:39:03;9.90;99.90
4755;DHT22;2391;47.212;7.542;2022-12-29T07:41:29;9.90;99.90
4755;DHT22;2391;47.212;7.542;2022-12-29T07:43:55;9.90;99.90
4755;DHT22;2391;47.212;7.542;2022-12-29T07:46:21;9.90;99.90
4755;DHT22;2391;47.212;7.542;2022-12-29T07:48:47;9.90;99.90
4755;DHT22;2391;47.212;7.542;2022-12-29T07:51:13;9.90;99.90
4755;DHT22;2391;47.212;7.542;2022-12-29T07:53:40;9.90;99.90
4755;DHT22;2391;47.212;7.542;2022-12-29T07:56:06;9.90;99.90
4755;DHT22;2391;47.212;7.542;2022-12-29T07:58:32;10.00;99.90
4755;DHT22;2391;47.212;7.542;2022-12-29T08:00:58;10.00;99.90
4755;DHT22;2391;47.212;7.542;2022-12-29T08:03:24;10.10;99.90
4755;DHT22;2391;47.212;7.542;2022-12-29T08:05:51;10.10;99.90
4755;DHT22;2391;47.212;7.542;2022-12-29T08:08:17;10.10;99.90
4755;DHT22;2391;47.212;7.542;2022-12-29T08:10:44;10.10;99.90
4755;DHT22;2391;47.212;7.542;2022-12-29T08:13:09;10.10;99.90
4755;DHT22;2391;47.212;7.542;2022-12-29T08:15:37;10.10;99.90
4755;DHT22;2391;47.212;7.542;2022-12-29T08:18:04;10.20;99.90
4755;DHT22;2391;47.212;7.542;2022-12-29T08:20:29;10.10;99.90
4755;DHT22;2391;47.212;7.542;2022-12-29T08:22:56;10.20;99.90
4755;DHT22;2391;47.212;7.542;2022-12-29T08:25:22;10.20;99.90
4755;DHT22;2391;47.212;7.542;2022-12-29T08:27:48;10.20;99.90
4755;DHT22;2391;47.212;7.542;2022-12-29T08:30:14;10.20;99.90
4755;DHT22;2391;47.212;7.542;2022-12-29T08:32:40;10.20;99.90
4755;DHT22;2391;47.212;7.542;2022-12-29T08:35:07;10.20;99.90
4755;DHT22;2391;47.212;7.542;2022-12-29T08:37:33;10.20;99.90
4755;DHT22;2391;47.212;7.542;2022-12-29T08:39:59;10.10;99.90
4755;DHT22;2391;47.212;7.542;2022-12-29T08:42:27;10.20;99.90
4755;DHT22;2391;47.212;7.542;2022-12-29T08:44:55;10.20;99.90
4755;DHT22;2391;47.212;7.542;2022-12-29T08:47:21;10.30;99.90
4755;DHT22;2391;47.212;7.542;2022-12-29T08:49:47;10.30;99.90
4755;DHT22;2391;47.212;7.542;2022-12-29T08:52:13;10.40;99.90
4755;DHT22;2391;47.212;7.542;2022-12-29T08:54:39;10.40;99.90
4755;DHT22;2391;47.212;7.542;2022-12-29T08:57:05;10.50;99.90
4755;DHT22;2391;47.212;7.542;2022-12-29T08:59:31;10.50;99.80
4755;DHT22;2391;47.212;7.542;2022-12-29T09:01:57;10.60;99.80
4755;DHT22;2391;47.212;7.542;2022-12-29T09:04:23;10.60;99.60
4755;DHT22;2391;47.212;7.542;2022-12-29T09:06:49;10.60;99.60
4755;DHT22;2391;47.212;7.542;2022-12-29T09:09:15;10.70;99.60
4755;DHT22;2391;47.212;7.542;2022-12-29T09:11:42;10.70;99.40
4755;DHT22;2391;47.212;7.542;2022-12-29T09:14:09;10.80;99.30
4755;DHT22;2391;47.212;7.542;2022-12-29T09:16:35;10.80;99.20
4755;DHT22;2391;47.212;7.542;2022-12-29T09:19:02;10.80;99.20
4755;DHT22;2391;47.212;7.542;2022-12-29T09:21:28;10.80;99.20
4755;DHT22;2391;47.212;7.542;2022-12-29T09:23:54;10.80;99.20
4755;DHT22;2391;47.212;7.542;2022-12-29T09:26:20;10.80;99.20
4755;DHT22;2391;47.212;7.542;2022-12-29T09:28:47;10.90;99.10
4755;DHT22;2391;47.212;7.542;2022-12-29T09:31:13;10.90;99.00
4755;DHT22;2391;47.212;7.542;2022-12-29T09:33:39;10.90;99.10
4755;DHT22;2391;47.212;7.542;2022-12-29T09:36:05;10.90;99.30
4755;DHT22;2391;47.212;7.542;2022-12-29T09:38:32;10.90;99.20
4755;DHT22;2391;47.212;7.542;2022-12-29T09:41:24;10.90;99.20
4755;DHT22;2391;47.212;7.542;2022-12-29T09:46:34;10.90;99.60
4755;DHT22;2391;47.212;7.542;2022-12-29T09:49:48;10.80;99.70
4755;DHT22;2391;47.212;7.542;2022-12-29T09:51:31;10.70;99.70
4755;DHT22;2391;47.212;7.542;2022-12-29T09:54:04;10.70;99.70
4755;DHT22;2391;47.212;7.542;2022-12-29T09:56:30;10.70;99.70
4755;DHT22;2391;47.212;7.542;2022-12-29T09:59:10;10.80;99.60
4755;DHT22;2391;47.212;7.542;2022-12-29T10:01:48;10.80;99.70
4755;DHT22;2391;47.212;7.542;2022-12-29T10:04:14;10.80;99.80
4755;DHT22;2391;47.212;7.542;2022-12-29T10:06:54;10.90;99.90
4755;DHT22;2391;47.212;7.542;2022-12-29T10:17:44;11.30;99.80
4755;DHT22;2391;47.212;7.542;2022-12-29T10:20:24;11.30;99.70
4755;DHT22;2391;47.212;7.542;2022-12-29T10:25:39;11.40;99.70
4755;DHT22;2391;47.212;7.542;2022-12-29T10:28:22;11.40;99.40
4755;DHT22;2391;47.212;7.542;2022-12-29T10:30:48;11.40;99.30
4755;DHT22;2391;47.212;7.542;2022-12-29T10:33:23;11.40;99.40
4755;DHT22;2391;47.212;7.542;2022-12-29T10:35:51;11.40;99.40
4755;DHT22;2391;47.212;7.542;2022-12-29T10:38:27;11.40;99.60
4755;DHT22;2391;47.212;7.542;2022-12-29T10:41:07;11.30;99.80
4755;DHT22;2391;47.212;7.542;2022-12-29T10:43:40;11.30;99.90
4755;DHT22;2391;47.212;7.542;2022-12-29T10:46:17;11.30;99.90
4755;DHT22;2391;47.212;7.542;2022-12-29T10:48:39;11.20;99.90
4755;DHT22;2391;47.212;7.542;2022-12-29T10:51:07;11.20;99.90
4755;DHT22;2391;47.212;7.542;2022-12-29T10:54:36;11.30;99.90
4755;DHT22;2391;47.212;7.542;2022-12-29T10:58:56;11.30;99.90
4755;DHT22;2391;47.212;7.542;2022-12-29T11:01:26;11.30;99.90
4755;DHT22;2391;47.212;7.542;2022-12-29T11:06:50;11.20;99.90
4755;DHT22;2391;47.212;7.542;2022-12-29T11:09:23;11.10;99.90
4755;DHT22;2391;47.212;7.542;2022-12-29T11:11:49;11.10;99.90
4755;DHT22;2391;47.212;7.542;2022-12-29T11:14:20;11.10;99.90
4755;DHT22;2391;47.212;7.542;2022-12-29T11:17:03;11.20;99.90
4755;DHT22;2391;47.212;7.542;2022-12-29T11:19:32;11.20;99.90
4755;DHT22;2391;47.212;7.542;2022-12-29T11:24:50;11.30;99.90
4755;DHT22;2391;47.212;7.542;2022-12-29T11:29:52;11.20;99.90
4755;DHT22;2391;47.212;7.542;2022-12-29T11:32:21;11.30;99.90
4755;DHT22;2391;47.212;7.542;2022-12-29T11:34:47;11.30;99.90
4755;DHT22;2391;47.212;7.542;2022-12-29T11:39:58;11.60;99.90
4755;DHT22;2391;47.212;7.542;2022-12-29T11:45:15;11.70;99.90
4755;DHT22;2391;47.212;7.542;2022-12-29T11:47:48;11.70;99.90
4755;DHT22;2391;47.212;7.542;2022-12-29T11:50:17;11.70;99.90
4755;DHT22;2391;47.212;7.542;2022-12-29T11:52:45;11.70;99.90
4755;DHT22;2391;47.212;7.542;2022-12-29T11:55:20;11.70;99.90
4755;DHT22;2391;47.212;7.542;2022-12-29T11:57:47;11.80;99.90
4755;DHT22;2391;47.212;7.542;2022-12-29T12:00:20;11.80;99.90
4755;DHT22;2391;47.212;7.542;2022-12-29T12:02:58;11.90;99.90
4755;DHT22;2391;47.212;7.542;2022-12-29T12:10:33;11.90;99.90
4755;DHT22;2391;47.212;7.542;2022-12-29T12:16:09;11.80;99.90
4755;DHT22;2391;47.212;7.542;2022-12-29T12:29:36;11.80;99.90
4755;DHT22;2391;47.212;7.542;2022-12-29T12:34:39;11.80;99.90
4755;DHT22;2391;47.212;7.542;2022-12-29T12:37:30;11.80;99.90
4755;DHT22;2391;47.212;7.542;2022-12-29T12:48:17;11.60;99.90
4755;DHT22;2391;47.212;7.542;2022-12-29T12:53:33;11.50;99.90
4755;DHT22;2391;47.212;7.542;2022-12-29T12:56:18;11.40;99.90
4755;DHT22;2391;47.212;7.542;2022-12-29T13:01:25;11.40;99.90
4755;DHT22;2391;47.212;7.542;2022-12-29T13:12:28;11.40;99.90
4755;DHT22;2391;47.212;7.542;2022-12-29T13:17:45;11.20;99.90
4755;DHT22;2391;47.212;7.542;2022-12-29T13:22:48;11.20;99.90
4755;DHT22;2391;47.212;7.542;2022-12-29T13:27:55;11.10;99.90
4755;DHT22;2391;47.212;7.542;2022-12-29T13:30:22;11.10;99.90
4755;DHT22;2391;47.212;7.542;2022-12-29T13:33:03;11.10;99.90
4755;DHT22;2391;47.212;7.542;2022-12-29T13:38:42;11.30;99.90
4755;DHT22;2391;47.212;7.542;2022-12-29T13:41:14;11.40;99.90
4755;DHT22;2391;47.212;7.542;2022-12-29T13:43:42;11.40;99.90
4755;DHT22;2391;47.212;7.542;2022-12-29T13:46:24;11.40;99.90
4755;DHT22;2391;47.212;7.542;2022-12-29T13:49:00;11.40;99.90
4755;DHT22;2391;47.212;7.542;2022-12-29T13:51:26;11.40;99.90
4755;DHT22;2391;47.212;7.542;2022-12-29T13:54:36;11.50;99.90
4755;DHT22;2391;47.212;7.542;2022-12-29T13:56:56;11.50;99.90
4755;DHT22;2391;47.212;7.542;2022-12-29T14:02:02;11.40;99.90
4755;DHT22;2391;47.212;7.542;2022-12-29T14:04:30;11.40;99.90
4755;DHT22;2391;47.212;7.542;2022-12-29T14:07:04;11.40;99.90
4755;DHT22;2391;47.212;7.542;2022-12-29T14:09:48;11.40;99.90
4755;DHT22;2391;47.212;7.542;2022-12-29T14:14:48;11.40;99.90
4755;DHT22;2391;47.212;7.542;2022-12-29T14:17:19;11.50;99.90
4755;DHT22;2391;47.212;7.542;2022-12-29T14:19:45;11.50;99.90
4755;DHT22;2391;47.212;7.542;2022-12-29T14:22:16;11.50;99.90
4755;DHT22;2391;47.212;7.542;2022-12-29T14:24:44;11.50;99.90
4755;DHT22;2391;47.212;7.542;2022-12-29T14:29:44;11.50;99.90
4755;DHT22;2391;47.212;7.542;2022-12-29T14:35:00;11.50;99.90
4755;DHT22;2391;47.212;7.542;2022-12-29T14:37:29;11.50;99.90
4755;DHT22;2391;47.212;7.542;2022-12-29T14:42:44;11.40;99.90
4755;DHT22;2391;47.212;7.542;2022-12-29T14:47:51;11.40;99.90
4755;DHT22;2391;47.212;7.542;2022-12-29T14:53:00;11.40;99.90
4755;DHT22;2391;47.212;7.542;2022-12-29T15:01:17;11.10;99.90
4755;DHT22;2391;47.212;7.542;2022-12-29T15:03:45;11.10;99.90
4755;DHT22;2391;47.212;7.542;2022-12-29T15:06:13;11.10;99.90
4755;DHT22;2391;47.212;7.542;2022-12-29T15:09:10;11.10;99.90
4755;DHT22;2391;47.212;7.542;2022-12-29T15:14:29;11.10;99.90
4755;DHT22;2391;47.212;7.542;2022-12-29T15:16:56;11.10;99.90
4755;DHT22;2391;47.212;7.542;2022-12-29T15:19:22;11.20;99.90
4755;DHT22;2391;47.212;7.542;2022-12-29T15:21:49;11.20;99.90
4755;DHT22;2391;47.212;7.542;2022-12-29T15:24:15;11.20;99.90
4755;DHT22;2391;47.212;7.542;2022-12-29T15:26:49;11.30;99.90
4755;DHT22;2391;47.212;7.542;2022-12-29T15:29:35;11.30;99.90
4755;DHT22;2391;47.212;7.542;2022-12-29T15:32:09;11.30;99.90
4755;DHT22;2391;47.212;7.542;2022-12-29T15:34:30;11.30;99.90
4755;DHT22;2391;47.212;7.542;2022-12-29T15:36:56;11.30;99.90
4755;DHT22;2391;47.212;7.542;2022-12-29T15:39:30;11.20;99.90
4755;DHT22;2391;47.212;7.542;2022-12-29T15:44:40;11.20;99.90
4755;DHT22;2391;47.212;7.542;2022-12-29T15:47:24;11.20;99.90
4755;DHT22;2391;47.212;7.542;2022-12-29T15:50:00;11.20;99.90
4755;DHT22;2391;47.212;7.542;2022-12-29T15:52:24;11.20;99.90
4755;DHT22;2391;47.212;7.542;2022-12-29T15:54:52;11.20;99.90
4755;DHT22;2391;47.212;7.542;2022-12-29T15:59:51;11.40;99.90
4755;DHT22;2391;47.212;7.542;2022-12-29T16:02:23;11.40;99.90
4755;DHT22;2391;47.212;7.542;2022-12-29T16:04:49;11.50;99.90
4755;DHT22;2391;47.212;7.542;2022-12-29T16:07:30;11.50;99.90
4755;DHT22;2391;47.212;7.542;2022-12-29T16:10:00;11.50;99.90
4755;DHT22;2391;47.212;7.542;2022-12-29T16:12:35;11.50;99.90
4755;DHT22;2391;47.212;7.542;2022-12-29T16:15:03;11.60;99.90
4755;DHT22;2391;47.212;7.542;2022-12-29T16:17:37;11.60;99.90
4755;DHT22;2391;47.212;7.542;2022-12-29T16:20:14;11.50;99.90
4755;DHT22;2391;47.212;7.542;2022-12-29T16:22:51;11.50;99.90
4755;DHT22;2391;47.212;7.542;2022-12-29T16:25:34;11.50;99.90
4755;DHT22;2391;47.212;7.542;2022-12-29T16:28:14;11.50;99.90
4755;DHT22;2391;47.212;7.542;2022-12-29T16:30:33;11.40;99.90
4755;DHT22;2391;47.212;7.542;2022-12-29T16:33:02;11.30;99.90
4755;DHT22;2391;47.212;7.542;2022-12-29T16:35:46;11.30;99.90
4755;DHT22;2391;47.212;7.542;2022-12-29T16:38:22;11.30;99.90
4755;DHT22;2391;47.212;7.542;2022-12-29T16:43:26;11.20;99.90
4755;DHT22;2391;47.212;7.542;2022-12-29T16:48:45;11.30;99.90
4755;DHT22;2391;47.212;7.542;2022-12-29T16:51:11;11.30;99.90
4755;DHT22;2391;47.212;7.542;2022-12-29T16:53:37;11.30;99.90
4755;DHT22;2391;47.212;7.542;2022-12-29T16:56:09;11.20;99.90
4755;DHT22;2391;47.212;7.542;2022-12-29T16:58:36;11.20;99.90
4755;DHT22;2391;47.212;7.542;2022-12-29T17:01:05;11.10;99.90
4755;DHT22;2391;47.212;7.542;2022-12-29T17:03:39;11.10;99.90
4755;DHT22;2391;47.212;7.542;2022-12-29T17:06:15;11.00;99.90
4755;DHT22;2391;47.212;7.542;2022-12-29T17:08:40;11.00;99.90
4755;DHT22;2391;47.212;7.542;2022-12-29T17:11:27;11.00;99.90
4755;DHT22;2391;47.212;7.542;2022-12-29T17:16:48;10.90;99.90
4755;DHT22;2391;47.212;7.542;2022-12-29T17:19:16;11.00;99.90
4755;DHT22;2391;47.212;7.542;2022-12-29T17:21:43;11.10;99.90
4755;DHT22;2391;47.212;7.542;2022-12-29T17:24:17;11.10;99.90
4755;DHT22;2391;47.212;7.542;2022-12-29T17:26:47;11.20;99.90
4755;DHT22;2391;47.212;7.542;2022-12-29T17:31:56;11.30;99.90
4755;DHT22;2391;47.212;7.542;2022-12-29T17:34:23;11.20;99.90
4755;DHT22;2391;47.212;7.542;2022-12-29T17:36:49;11.20;99.90
4755;DHT22;2391;47.212;7.542;2022-12-29T17:39:15;11.10;99.90
4755;DHT22;2391;47.212;7.542;2022-12-29T17:41:41;11.10;99.90
4755;DHT22;2391;47.212;7.542;2022-12-29T17:44:09;11.10;99.90
4755;DHT22;2391;47.212;7.542;2022-12-29T17:46:36;11.20;99.90
4755;DHT22;2391;47.212;7.542;2022-12-29T17:49:04;11.20;99.90
4755;DHT22;2391;47.212;7.542;2022-12-29T17:51:32;11.30;99.90
4755;DHT22;2391;47.212;7.542;2022-12-29T17:53:58;11.30;99.90
4755;DHT22;2391;47.212;7.542;2022-12-29T17:56:24;11.30;99.90
4755;DHT22;2391;47.212;7.542;2022-12-29T17:58:50;11.30;99.90
4755;DHT22;2391;47.212;7.542;2022-12-29T18:01:17;11.30;99.90
4755;DHT22;2391;47.212;7.542;2022-12-29T18:03:45;11.20;99.90
4755;DHT22;2391;47.212;7.542;2022-12-29T18:06:11;11.20;99.90
4755;DHT22;2391;47.212;7.542;2022-12-29T18:08:39;11.20;99.90
4755;DHT22;2391;47.212;7.542;2022-12-29T18:11:21;11.20;99.90
4755;DHT22;2391;47.212;7.542;2022-12-29T18:13:47;11.20;99.90
4755;DHT22;2391;47.212;7.542;2022-12-29T18:16:13;11.20;99.90
4755;DHT22;2391;47.212;7.542;2022-12-29T18:18:39;11.10;99.90
4755;DHT22;2391;47.212;7.542;2022-12-29T18:21:05;11.20;99.90
4755;DHT22;2391;47.212;7.542;2022-12-29T18:23:33;11.10;99.90
4755;DHT22;2391;47.212;7.542;2022-12-29T18:26:10;11.20;99.90
4755;DHT22;2391;47.212;7.542;2022-12-29T18:28:34;11.20;99.90
4755;DHT22;2391;47.212;7.542;2022-12-29T18:31:01;11.30;99.90
4755;DHT22;2391;47.212;7.542;2022-12-29T18:33:27;11.30;99.90
4755;DHT22;2391;47.212;7.542;2022-12-29T18:35:59;11.30;99.90
4755;DHT22;2391;47.212;7.542;2022-12-29T18:38:26;11.30;99.90
4755;DHT22;2391;47.212;7.542;2022-12-29T18:40:53;11.30;99.90
4755;DHT22;2391;47.212;7.542;2022-12-29T18:43:20;11.30;99.90
4755;DHT22;2391;47.212;7.542;2022-12-29T18:45:46;11.20;99.90
4755;DHT22;2391;47.212;7.542;2022-12-29T18:48:13;11.20;99.90
4755;DHT22;2391;47.212;7.542;2022-12-29T18:50:40;11.20;99.90
4755;DHT22;2391;47.212;7.542;2022-12-29T18:53:14;11.20;99.90
4755;DHT22;2391;47.212;7.542;2022-12-29T18:55:39;11.10;99.90
4755;DHT22;2391;47.212;7.542;2022-12-29T18:58:05;11.10;99.90
4755;DHT22;2391;47.212;7.542;2022-12-29T19:00:31;11.20;99.90
4755;DHT22;2391;47.212;7.542;2022-12-29T19:02:56;11.10;99.90
4755;DHT22;2391;47.212;7.542;2022-12-29T19:05:28;11.20;99.90
4755;DHT22;2391;47.212;7.542;2022-12-29T19:07:55;11.30;99.90
4755;DHT22;2391;47.212;7.542;2022-12-29T19:10:23;11.30;99.90